Time;durP1;ratioP1;P1;durP2;ratioP2;P2;SDS_P1;SDS_P2;PMS_P1;PMS_P2;Temp;Humidity;BMP_temperature;BMP_pressure;BME280_temperature;BME280_humidity;BME280_pressure;Samples;Min_cycle;Max_cycle;Signal;HPM_P1;HPM_P2
2023/12/12 00:01:13;;;;;;;26.17;15.77;;;5.70;99.90;;;;;;5108839;28;20909;-63
2023/12/12 00:03:42;;;;;;;22.63;14.43;;;5.60;99.90;;;;;;5108459;28;20223;-61
2023/12/12 00:06:11;;;;;;;26.27;15.10;;;5.50;99.90;;;;;;5108702;28;20199;-64
2023/12/12 00:08:40;;;;;;;24.57;14.90;;;5.60;99.90;;;;;;5108543;28;20228;-65
2023/12/12 00:11:09;;;;;;;21.30;14.03;;;5.80;99.90;;;;;;5108610;28;20206;-64
2023/12/12 00:13:37;;;;;;;18.97;13.07;;;5.80;99.90;;;;;;5108685;28;20582;-60
2023/12/12 00:16:09;;;;;;;16.50;12.43;;;5.90;99.90;;;;;;5108530;28;20211;-64
2023/12/12 00:18:38;;;;;;;18.23;13.77;;;6.00;99.90;;;;;;5108595;28;20192;-63
2023/12/12 00:21:07;;;;;;;20.70;13.53;;;6.00;99.90;;;;;;5108456;28;20235;-65
2023/12/12 00:23:36;;;;;;;26.30;17.00;;;6.10;99.90;;;;;;5108353;28;20227;-66
2023/12/12 00:26:07;;;;;;;23.73;16.03;;;6.20;99.90;;;;;;5108419;28;20194;-64
2023/12/12 00:28:37;;;;;;;30.27;18.50;;;6.10;99.90;;;;;;5111446;28;20556;-60
2023/12/12 00:31:07;;;;;;;36.33;20.67;;;6.00;99.90;;;;;;5112293;28;20199;-63
2023/12/12 00:33:36;;;;;;;31.53;21.30;;;6.00;99.90;;;;;;5112472;28;20533;-65
2023/12/12 00:36:05;;;;;;;33.83;21.87;;;6.00;99.90;;;;;;5112424;28;20618;-64
2023/12/12 00:38:34;;;;;;;35.30;21.53;;;5.90;99.90;;;;;;5112521;28;20191;-62
2023/12/12 00:41:02;;;;;;;32.03;19.90;;;5.90;99.90;;;;;;5112347;28;20229;-63
2023/12/12 00:43:31;;;;;;;35.57;21.20;;;5.90;99.90;;;;;;5112635;28;20251;-63
2023/12/12 00:46:01;;;;;;;36.73;22.00;;;6.00;99.90;;;;;;5112435;28;20270;-62
2023/12/12 00:48:31;;;;;;;38.30;22.17;;;6.00;99.90;;;;;;5112436;28;20199;-63
2023/12/12 00:50:59;;;;;;;34.97;21.80;;;6.00;99.90;;;;;;5112286;28;20223;-60
2023/12/12 00:53:28;;;;;;;29.93;21.03;;;6.00;99.90;;;;;;5112169;28;20243;-63
2023/12/12 00:55:56;;;;;;;31.97;20.50;;;6.00;99.90;;;;;;5112143;28;20680;-63
2023/12/12 00:58:25;;;;;;;27.63;17.83;;;6.10;99.90;;;;;;5111985;28;20681;-65
2023/12/12 01:00:54;;;;;;;32.00;20.60;;;6.20;99.90;;;;;;5112009;28;20219;-62
2023/12/12 01:03:22;;;;;;;33.43;21.93;;;6.10;99.90;;;;;;5111774;28;20251;-64
2023/12/12 01:05:52;;;;;;;29.60;19.63;;;6.10;99.90;;;;;;5111903;28;20246;-64
2023/12/12 01:08:21;;;;;;;28.30;17.87;;;6.20;99.90;;;;;;5111770;28;20561;-64
2023/12/12 01:10:49;;;;;;;25.80;15.77;;;6.20;99.90;;;;;;5111935;28;20192;-63
2023/12/12 01:13:18;;;;;;;26.63;16.07;;;6.20;99.90;;;;;;5111822;28;20237;-64
2023/12/12 01:15:47;;;;;;;28.03;17.07;;;6.20;99.90;;;;;;5111540;28;20196;-63
2023/12/12 01:18:15;;;;;;;25.40;18.07;;;6.20;99.90;;;;;;5111657;28;20215;-63
2023/12/12 01:20:44;;;;;;;24.33;17.10;;;6.10;99.90;;;;;;5111432;28;20196;-63
2023/12/12 01:23:14;;;;;;;23.17;16.10;;;6.00;99.90;;;;;;5111181;28;20203;-62
2023/12/12 01:25:43;;;;;;;23.37;16.77;;;6.10;99.90;;;;;;5111540;28;20217;-63
2023/12/12 01:28:11;;;;;;;25.00;16.13;;;6.10;99.90;;;;;;5111271;28;20195;-62
2023/12/12 01:30:40;;;;;;;24.43;16.37;;;6.20;99.90;;;;;;5111337;28;20220;-64
2023/12/12 01:33:08;;;;;;;24.27;15.27;;;6.20;99.90;;;;;;5111147;28;20558;-64
2023/12/12 01:35:37;;;;;;;22.23;15.30;;;6.20;99.90;;;;;;5110905;28;20689;-64
2023/12/12 01:38:06;;;;;;;20.73;13.93;;;6.20;99.90;;;;;;5111053;28;20196;-63
2023/12/12 01:40:36;;;;;;;24.40;14.70;;;6.20;99.90;;;;;;5110985;28;20269;-65
2023/12/12 01:43:05;;;;;;;21.73;14.23;;;6.20;99.90;;;;;;5110893;28;20227;-64
2023/12/12 01:45:34;;;;;;;19.20;13.70;;;6.20;99.90;;;;;;5110849;28;20327;-63
2023/12/12 01:48:03;;;;;;;24.13;14.97;;;6.20;99.90;;;;;;5110872;28;20291;-64
2023/12/12 01:50:32;;;;;;;22.63;14.83;;;6.20;99.90;;;;;;5110591;28;20203;-64
2023/12/12 01:53:00;;;;;;;22.80;15.27;;;6.20;99.90;;;;;;5110964;28;20211;-64
2023/12/12 01:55:29;;;;;;;21.97;15.07;;;6.20;99.90;;;;;;5110700;28;20200;-63
2023/12/12 01:57:59;;;;;;;24.67;15.37;;;6.20;99.90;;;;;;5110587;28;20193;-60
2023/12/12 02:00:28;;;;;;;21.53;14.80;;;6.20;99.90;;;;;;5110828;27;20275;-62
2023/12/12 02:02:57;;;;;;;18.80;13.87;;;6.20;99.90;;;;;;5120541;27;20226;-60
2023/12/12 02:05:29;;;;;;;22.47;14.43;;;6.20;99.90;;;;;;5131044;27;20377;-63
2023/12/12 02:07:58;;;;;;;21.77;15.07;;;6.20;99.90;;;;;;5131040;27;20211;-61
2023/12/12 02:10:27;;;;;;;21.33;15.00;;;6.20;99.90;;;;;;5117868;27;20227;-64
2023/12/12 02:12:56;;;;;;;22.47;14.73;;;6.20;99.90;;;;;;5110844;28;20192;-63
2023/12/12 02:15:26;;;;;;;21.83;15.30;;;6.20;99.90;;;;;;5110613;28;20234;-64
2023/12/12 02:17:55;;;;;;;22.17;14.83;;;6.20;99.90;;;;;;5110502;28;20188;-61
2023/12/12 02:20:23;;;;;;;25.63;16.40;;;6.10;99.90;;;;;;5110463;28;20200;-61
2023/12/12 02:22:53;;;;;;;23.47;16.17;;;6.10;99.90;;;;;;5124707;27;20256;-65
2023/12/12 02:25:22;;;;;;;23.27;14.93;;;6.10;99.90;;;;;;5130994;27;20428;-65
2023/12/12 02:27:51;;;;;;;23.27;15.13;;;6.20;99.90;;;;;;5130955;27;20191;-64
2023/12/12 02:30:22;;;;;;;23.30;15.37;;;6.20;99.90;;;;;;5130841;27;20207;-63
2023/12/12 02:32:50;;;;;;;22.87;14.40;;;6.20;99.90;;;;;;5130880;27;20633;-59
2023/12/12 02:35:19;;;;;;;21.73;14.20;;;6.20;99.90;;;;;;5130865;27;20199;-63
2023/12/12 02:37:48;;;;;;;24.00;16.20;;;6.20;99.90;;;;;;5130592;27;20279;-65
2023/12/12 02:40:18;;;;;;;24.23;15.17;;;6.10;99.90;;;;;;5129964;27;20202;-62
2023/12/12 02:42:48;;;;;;;25.37;15.73;;;6.10;99.90;;;;;;5130546;27;20187;-63
2023/12/12 02:45:17;;;;;;;25.03;15.10;;;6.10;99.90;;;;;;5130081;27;20307;-64
2023/12/12 02:47:46;;;;;;;19.93;14.20;;;6.10;99.90;;;;;;5130481;27;20198;-63
2023/12/12 02:50:15;;;;;;;21.67;14.20;;;6.20;99.90;;;;;;5129758;27;20213;-63
2023/12/12 02:52:43;;;;;;;23.00;13.87;;;6.20;99.90;;;;;;5130069;27;20366;-64
2023/12/12 02:55:12;;;;;;;19.97;14.17;;;6.20;99.90;;;;;;5129990;27;20650;-63
2023/12/12 02:57:42;;;;;;;23.37;14.30;;;6.20;99.90;;;;;;5111448;27;20566;-64
2023/12/12 03:00:11;;;;;;;17.77;13.50;;;6.20;99.90;;;;;;5130064;27;20276;-63
2023/12/12 03:02:40;;;;;;;16.80;12.10;;;6.20;99.90;;;;;;5129655;27;20665;-62
2023/12/12 03:05:09;;;;;;;18.77;12.53;;;6.10;99.90;;;;;;5129855;27;20223;-63
2023/12/12 03:07:38;;;;;;;18.63;12.97;;;6.20;99.90;;;;;;5111283;27;20191;-64
2023/12/12 03:10:07;;;;;;;17.53;12.27;;;6.20;99.90;;;;;;5129695;27;20205;-63
2023/12/12 03:12:36;;;;;;;16.83;11.23;;;6.10;99.90;;;;;;5129670;27;20191;-63
2023/12/12 03:15:07;;;;;;;17.07;11.83;;;6.10;99.90;;;;;;5129745;27;20283;-59
2023/12/12 03:17:35;;;;;;;15.63;11.83;;;6.10;99.90;;;;;;5129715;27;20278;-61
2023/12/12 03:20:05;;;;;;;16.23;11.93;;;6.20;99.90;;;;;;5129692;27;20207;-62
2023/12/12 03:22:34;;;;;;;14.17;11.43;;;6.20;99.90;;;;;;5129542;27;20203;-62
2023/12/12 03:25:02;;;;;;;18.63;11.83;;;6.20;99.90;;;;;;5129530;27;20600;-62
2023/12/12 03:27:31;;;;;;;16.33;11.87;;;6.20;99.90;;;;;;5129726;27;20575;-62
2023/12/12 03:30:01;;;;;;;15.83;11.50;;;6.30;99.90;;;;;;5129591;27;20195;-61
2023/12/12 03:32:31;;;;;;;16.67;11.90;;;6.30;99.90;;;;;;5129666;27;20187;-63
2023/12/12 03:35:00;;;;;;;18.37;12.37;;;6.30;99.90;;;;;;5129377;27;20230;-62
2023/12/12 03:37:29;;;;;;;15.27;10.73;;;6.30;99.90;;;;;;5129167;27;20280;-63
2023/12/12 03:39:57;;;;;;;18.43;12.40;;;6.30;99.90;;;;;;5129193;27;20883;-63
2023/12/12 03:42:26;;;;;;;16.80;11.40;;;6.30;99.90;;;;;;5129536;28;20303;-61
2023/12/12 03:44:54;;;;;;;16.83;12.17;;;6.30;99.90;;;;;;5129676;28;20264;-62
2023/12/12 03:47:23;;;;;;;15.73;11.37;;;6.30;99.90;;;;;;5129496;28;20199;-63
2023/12/12 03:49:53;;;;;;;14.97;11.73;;;6.30;99.90;;;;;;5129598;28;20294;-63
2023/12/12 03:52:22;;;;;;;14.47;10.50;;;6.20;99.90;;;;;;5129460;28;20647;-63
2023/12/12 03:54:51;;;;;;;13.47;10.17;;;6.10;99.90;;;;;;5129874;28;20191;-61
2023/12/12 03:57:19;;;;;;;15.33;10.23;;;6.00;99.90;;;;;;5129556;28;20255;-63
2023/12/12 03:59:48;;;;;;;13.50;10.23;;;6.00;99.90;;;;;;5129692;28;20255;-63
2023/12/12 04:02:16;;;;;;;14.07;10.63;;;5.90;99.90;;;;;;5130555;27;20185;-64
2023/12/12 04:04:45;;;;;;;14.07;10.53;;;5.90;99.90;;;;;;5133726;27;20643;-62
2023/12/12 04:07:15;;;;;;;13.40;10.13;;;6.00;99.90;;;;;;5133778;27;20825;-64
2023/12/12 04:09:44;;;;;;;12.43;9.43;;;6.00;99.90;;;;;;5133813;27;20291;-63
2023/12/12 04:12:13;;;;;;;12.80;9.57;;;6.20;99.90;;;;;;5133776;27;20194;-63
2023/12/12 04:14:41;;;;;;;13.07;10.70;;;6.10;99.90;;;;;;5133766;27;20192;-63
2023/12/12 04:17:10;;;;;;;12.50;9.97;;;6.10;99.90;;;;;;5133922;27;20199;-62
2023/12/12 04:19:38;;;;;;;13.77;10.23;;;6.10;99.90;;;;;;5133878;27;20295;-62
2023/12/12 04:22:07;;;;;;;16.43;12.10;;;6.20;99.90;;;;;;5133839;27;20679;-62
2023/12/12 04:24:38;;;;;;;19.17;14.30;;;6.10;99.90;;;;;;5133791;27;20193;-63
2023/12/12 04:27:07;;;;;;;13.07;10.07;;;6.10;99.90;;;;;;5133538;27;20223;-63
2023/12/12 04:29:35;;;;;;;13.77;9.87;;;6.00;99.90;;;;;;5133406;27;20199;-61
2023/12/12 04:32:04;;;;;;;14.20;10.13;;;6.00;99.90;;;;;;5133115;27;20196;-63
2023/12/12 04:34:34;;;;;;;12.13;9.87;;;6.00;99.90;;;;;;5133363;27;20203;-63
2023/12/12 04:37:02;;;;;;;12.73;9.37;;;6.00;99.90;;;;;;5132850;27;20187;-61
2023/12/12 04:39:31;;;;;;;11.60;8.97;;;6.00;99.90;;;;;;5133060;27;20636;-63
2023/12/12 04:42:01;;;;;;;13.80;10.23;;;6.00;99.90;;;;;;5132485;27;20235;-61
2023/12/12 04:44:30;;;;;;;13.47;9.53;;;6.00;99.90;;;;;;5132748;27;20191;-63
2023/12/12 04:46:58;;;;;;;12.40;9.37;;;6.10;99.90;;;;;;5132675;27;20215;-64
2023/12/12 04:49:27;;;;;;;10.17;8.13;;;6.10;99.90;;;;;;5132473;27;20200;-62
2023/12/12 04:51:55;;;;;;;12.33;9.43;;;6.10;99.90;;;;;;5132649;27;20728;-60
2023/12/12 04:54:24;;;;;;;11.47;8.50;;;6.10;99.90;;;;;;5132481;27;20195;-62
2023/12/12 04:56:52;;;;;;;12.63;9.30;;;6.10;99.90;;;;;;5131337;27;20581;-64
2023/12/12 04:59:22;;;;;;;12.53;9.30;;;6.20;99.90;;;;;;5116848;27;20220;-61
2023/12/12 05:01:51;;;;;;;13.93;10.37;;;6.20;99.90;;;;;;5122951;27;20195;-62
2023/12/12 05:04:19;;;;;;;16.10;11.37;;;6.30;99.90;;;;;;5116585;27;20331;-61
2023/12/12 05:06:48;;;;;;;13.27;10.43;;;6.30;99.90;;;;;;5111559;28;20222;-64
2023/12/12 05:09:18;;;;;;;17.03;11.37;;;6.40;99.90;;;;;;5111806;28;20252;-62
2023/12/12 05:11:47;;;;;;;24.30;13.90;;;6.40;99.90;;;;;;5111561;28;20201;-61
2023/12/12 05:14:15;;;;;;;16.83;11.53;;;6.40;99.90;;;;;;5111328;28;20273;-63
2023/12/12 05:16:45;;;;;;;17.33;12.57;;;6.40;99.90;;;;;;5093103;28;20198;-63
2023/12/12 05:19:21;;;;;;;17.80;11.90;;;6.50;99.90;;;;;;5111366;28;20195;-63
2023/12/12 05:21:49;;;;;;;17.97;12.97;;;6.50;99.90;;;;;;5111262;28;20652;-63
2023/12/12 05:24:18;;;;;;;19.03;12.77;;;6.50;99.90;;;;;;5093396;28;20200;-63
2023/12/12 05:26:47;;;;;;;18.53;13.30;;;6.50;99.90;;;;;;5111235;28;20314;-62
2023/12/12 05:29:15;;;;;;;20.57;12.77;;;6.50;99.90;;;;;;5121942;27;20188;-64
2023/12/12 05:31:45;;;;;;;18.90;13.30;;;6.50;99.90;;;;;;5131700;27;20715;-64
2023/12/12 05:34:14;;;;;;;19.17;13.33;;;6.50;99.90;;;;;;5131432;27;20201;-63
2023/12/12 05:36:42;;;;;;;18.20;11.97;;;6.50;99.90;;;;;;5130071;27;20199;-63
2023/12/12 05:39:11;;;;;;;16.73;12.87;;;6.50;99.90;;;;;;5131219;27;20222;-62
2023/12/12 05:41:39;;;;;;;18.10;12.43;;;6.30;99.90;;;;;;5131032;27;20322;-64
2023/12/12 05:44:08;;;;;;;23.00;15.90;;;6.30;99.90;;;;;;5131406;27;20191;-63
2023/12/12 05:46:39;;;;;;;13.30;11.50;;;6.30;99.90;;;;;;5131234;27;20250;-64
2023/12/12 05:49:10;;;;;;;15.33;10.30;;;6.20;99.90;;;;;;5131288;27;20227;-61
2023/12/12 05:51:39;;;;;;;13.17;10.43;;;6.20;99.90;;;;;;5131376;27;20224;-60
2023/12/12 05:54:11;;;;;;;13.60;9.27;;;6.10;99.90;;;;;;5131180;27;20958;-62
2023/12/12 05:56:42;;;;;;;13.27;10.50;;;6.10;99.90;;;;;;5131303;27;20610;-61
2023/12/12 05:59:14;;;;;;;15.17;10.97;;;6.00;99.90;;;;;;5131016;27;20211;-61
2023/12/12 06:01:43;;;;;;;17.90;11.97;;;6.00;99.90;;;;;;5127884;27;20197;-63
2023/12/12 06:04:16;;;;;;;14.67;11.60;;;6.10;99.90;;;;;;5130517;27;20602;-64
2023/12/12 06:06:45;;;;;;;16.60;12.20;;;6.10;99.90;;;;;;5130137;27;20697;-64
2023/12/12 06:09:16;;;;;;;19.27;13.87;;;6.20;99.90;;;;;;5129970;27;20653;-64
2023/12/12 06:11:45;;;;;;;24.63;16.63;;;6.30;99.90;;;;;;5130237;27;20192;-63
2023/12/12 06:14:14;;;;;;;24.80;18.13;;;6.10;99.90;;;;;;5130282;27;20608;-64
2023/12/12 06:16:42;;;;;;;27.80;19.17;;;6.00;99.90;;;;;;5130001;27;20187;-63
2023/12/12 06:19:11;;;;;;;31.57;22.03;;;6.00;99.90;;;;;;5129762;27;20203;-65
2023/12/12 06:21:41;;;;;;;33.90;23.00;;;6.10;99.90;;;;;;5129547;27;20677;-63
2023/12/12 06:24:10;;;;;;;30.30;23.10;;;6.20;99.90;;;;;;5122120;27;20188;-64
2023/12/12 06:26:38;;;;;;;33.50;25.33;;;6.30;99.90;;;;;;5116337;27;20225;-65
2023/12/12 06:29:09;;;;;;;35.07;23.07;;;6.30;99.90;;;;;;5109753;28;20275;-65
2023/12/12 06:31:38;;;;;;;34.13;24.53;;;6.20;99.90;;;;;;5117768;27;20218;-60
2023/12/12 06:34:07;;;;;;;33.90;22.23;;;6.20;99.90;;;;;;5119432;27;20191;-62
2023/12/12 06:36:37;;;;;;;38.13;24.77;;;6.30;99.90;;;;;;5126646;27;20661;-60
2023/12/12 06:39:09;;;;;;;31.23;21.50;;;6.30;99.90;;;;;;5116149;27;20187;-59
2023/12/12 06:41:38;;;;;;;29.77;21.07;;;6.20;99.90;;;;;;5118533;27;20232;-62
2023/12/12 06:44:07;;;;;;;32.97;24.00;;;6.20;99.90;;;;;;5121060;27;20287;-64
2023/12/12 06:46:36;;;;;;;27.30;21.37;;;6.10;99.90;;;;;;5129651;27;20404;-64
2023/12/12 06:49:06;;;;;;;32.07;19.87;;;6.00;99.90;;;;;;5118004;27;20228;-64
2023/12/12 06:51:35;;;;;;;28.63;19.60;;;5.90;99.90;;;;;;5117630;27;20542;-64
2023/12/12 06:54:04;;;;;;;27.00;18.03;;;5.90;99.90;;;;;;5126810;27;20282;-65
2023/12/12 06:56:34;;;;;;;26.50;18.87;;;5.90;99.90;;;;;;5129996;27;20204;-64
2023/12/12 06:59:05;;;;;;;26.20;17.43;;;5.90;99.90;;;;;;5129831;27;20198;-64
2023/12/12 07:01:33;;;;;;;24.60;17.47;;;5.90;99.90;;;;;;5129737;27;20669;-62
2023/12/12 07:04:02;;;;;;;25.27;18.00;;;6.00;99.90;;;;;;5129901;27;20202;-65
2023/12/12 07:06:30;;;;;;;24.13;16.67;;;5.90;99.90;;;;;;5129721;27;20207;-64
2023/12/12 07:09:00;;;;;;;22.40;16.60;;;6.00;99.90;;;;;;5129691;27;20195;-64
2023/12/12 07:11:28;;;;;;;23.73;16.83;;;6.00;99.90;;;;;;5128152;27;20630;-65
2023/12/12 07:13:58;;;;;;;22.40;18.07;;;6.10;99.90;;;;;;5129656;27;20571;-64
2023/12/12 07:16:27;;;;;;;30.67;22.50;;;6.10;99.90;;;;;;5129941;27;20276;-63
2023/12/12 07:18:55;;;;;;;34.67;22.00;;;6.10;99.90;;;;;;5129685;27;20283;-64
2023/12/12 07:21:24;;;;;;;38.47;25.67;;;6.20;99.90;;;;;;5129592;27;20252;-64
2023/12/12 07:23:53;;;;;;;38.90;25.83;;;6.30;99.90;;;;;;5129412;27;20195;-65
2023/12/12 07:26:24;;;;;;;38.33;24.90;;;6.20;99.90;;;;;;5129547;27;20661;-65
2023/12/12 07:28:52;;;;;;;37.00;25.20;;;6.10;99.90;;;;;;5129583;27;20203;-65
2023/12/12 07:31:22;;;;;;;36.30;25.07;;;6.10;99.90;;;;;;5129647;27;20194;-64
2023/12/12 07:33:51;;;;;;;38.43;25.90;;;6.10;99.90;;;;;;5114581;27;20200;-64
2023/12/12 07:36:20;;;;;;;50.33;32.43;;;6.10;99.90;;;;;;5114214;27;20187;-64
2023/12/12 07:38:49;;;;;;;45.13;30.53;;;6.30;99.90;;;;;;5129432;27;20199;-65
2023/12/12 07:41:18;;;;;;;44.77;28.83;;;6.40;99.90;;;;;;5129233;27;20861;-60
2023/12/12 07:43:46;;;;;;;46.00;30.03;;;6.50;99.90;;;;;;5129605;27;20201;-63
2023/12/12 07:46:15;;;;;;;41.17;28.00;;;6.50;99.90;;;;;;5129321;27;20187;-65
2023/12/12 07:48:45;;;;;;;42.47;29.00;;;6.50;99.90;;;;;;5126679;27;20759;-62
2023/12/12 07:51:12;;;;;;;38.77;25.27;;;6.40;99.90;;;;;;5116911;28;20267;-63
2023/12/12 07:53:41;;;;;;;41.83;27.73;;;6.30;99.90;;;;;;5122836;28;20267;-61
2023/12/12 07:56:10;;;;;;;35.77;25.43;;;6.30;99.90;;;;;;5129095;28;20206;-60
2023/12/12 07:58:39;;;;;;;34.63;26.53;;;6.20;99.90;;;;;;5129282;28;20673;-59
2023/12/12 08:01:07;;;;;;;35.87;25.43;;;6.20;99.90;;;;;;5120511;28;20195;-60
2023/12/12 08:03:36;;;;;;;41.03;26.97;;;6.20;99.90;;;;;;5129177;28;20217;-60
2023/12/12 08:06:07;;;;;;;34.37;24.50;;;6.20;99.90;;;;;;5129229;28;20969;-59
2023/12/12 08:08:36;;;;;;;31.80;22.83;;;6.30;99.90;;;;;;5128976;28;20222;-60
2023/12/12 08:11:05;;;;;;;37.07;24.53;;;6.30;99.90;;;;;;5129139;28;20199;-60
2023/12/12 08:13:34;;;;;;;45.57;27.47;;;6.20;99.90;;;;;;5128849;28;20287;-60
2023/12/12 08:16:03;;;;;;;34.40;25.93;;;6.20;99.90;;;;;;5128003;27;20257;-61
2023/12/12 08:18:31;;;;;;;48.20;31.67;;;6.30;99.90;;;;;;5117067;28;20691;-60
2023/12/12 08:21:00;;;;;;;41.67;31.57;;;6.30;99.90;;;;;;5129296;28;20736;-59
2023/12/12 08:23:30;;;;;;;49.10;31.63;;;6.30;99.90;;;;;;5113155;28;20848;-60
2023/12/12 08:26:01;;;;;;;42.97;28.53;;;6.30;99.90;;;;;;5108632;28;20199;-64
2023/12/12 08:28:30;;;;;;;32.13;24.00;;;6.30;99.90;;;;;;5114577;28;20318;-63
2023/12/12 08:30:59;;;;;;;32.83;20.00;;;6.40;99.90;;;;;;5128882;28;20780;-59
2023/12/12 08:33:28;;;;;;;25.10;16.40;;;6.30;99.90;;;;;;5129110;28;20199;-59
2023/12/12 08:35:57;;;;;;;29.57;15.87;;;6.40;99.90;;;;;;5129057;28;20200;-59
2023/12/12 08:38:26;;;;;;;41.03;21.70;;;6.40;99.90;;;;;;5128685;28;20205;-61
2023/12/12 08:40:56;;;;;;;47.17;25.57;;;6.40;99.90;;;;;;5127808;28;20232;-60
2023/12/12 08:43:25;;;;;;;47.77;28.50;;;6.40;99.90;;;;;;5127140;28;20609;-59
2023/12/12 08:45:54;;;;;;;37.73;23.27;;;6.50;99.90;;;;;;5128952;28;20605;-59
2023/12/12 08:48:23;;;;;;;31.03;20.80;;;6.50;99.90;;;;;;5129222;27;20223;-59
2023/12/12 08:50:52;;;;;;;25.43;18.40;;;6.40;99.90;;;;;;5132766;27;20244;-60
2023/12/12 08:53:26;;;;;;;26.07;17.60;;;6.40;99.90;;;;;;5132515;27;20217;-58
2023/12/12 08:55:57;;;;;;;25.17;17.77;;;6.50;99.90;;;;;;5132489;27;20206;-60
2023/12/12 08:58:26;;;;;;;24.37;15.93;;;6.50;99.90;;;;;;5125777;27;20195;-59
2023/12/12 09:00:55;;;;;;;22.03;15.33;;;6.50;99.90;;;;;;5113703;27;20270;-58
2023/12/12 09:03:24;;;;;;;21.67;14.67;;;6.50;99.90;;;;;;5111719;28;20199;-59
2023/12/12 09:05:52;;;;;;;22.73;16.60;;;6.50;99.90;;;;;;5111708;28;20227;-59
2023/12/12 09:08:21;;;;;;;19.33;14.00;;;6.50;99.90;;;;;;5111351;28;20292;-60
2023/12/12 09:10:50;;;;;;;20.20;15.03;;;6.50;99.90;;;;;;5111248;28;20207;-59
2023/12/12 09:13:20;;;;;;;21.30;14.50;;;6.50;99.90;;;;;;5092879;28;20208;-59
2023/12/12 09:15:49;;;;;;;21.60;14.30;;;6.50;99.90;;;;;;5111527;28;20198;-58
2023/12/12 09:18:17;;;;;;;21.63;14.93;;;6.50;99.90;;;;;;5115045;27;20201;-59
2023/12/12 09:20:47;;;;;;;21.60;14.47;;;6.60;99.90;;;;;;5132117;27;20609;-58
2023/12/12 09:23:17;;;;;;;20.63;14.30;;;6.60;99.90;;;;;;5131889;27;20208;-59
2023/12/12 09:25:45;;;;;;;24.30;16.00;;;6.50;99.90;;;;;;5131721;27;20292;-59
2023/12/12 09:28:14;;;;;;;21.40;14.60;;;6.50;99.90;;;;;;5131481;27;20219;-60
2023/12/12 09:30:47;;;;;;;22.10;14.23;;;6.50;99.90;;;;;;5131746;27;20223;-60
2023/12/12 09:33:15;;;;;;;29.10;15.47;;;6.60;99.90;;;;;;5131723;27;20219;-62
2023/12/12 09:35:44;;;;;;;21.27;15.30;;;6.50;99.90;;;;;;5121065;27;20204;-61
2023/12/12 09:38:13;;;;;;;17.63;13.30;;;6.50;99.90;;;;;;5129329;27;20211;-59
2023/12/12 09:40:41;;;;;;;20.27;14.47;;;6.50;99.90;;;;;;5131295;27;20292;-60
2023/12/12 09:43:13;;;;;;;19.43;14.87;;;6.50;99.90;;;;;;5128253;27;20186;-60
2023/12/12 09:45:47;;;;;;;24.17;15.70;;;6.50;99.90;;;;;;5120048;27;20268;-61
2023/12/12 09:48:16;;;;;;;22.83;17.53;;;6.50;99.90;;;;;;5113781;27;21021;-60
2023/12/12 09:50:47;;;;;;;23.43;17.50;;;6.40;99.90;;;;;;5131461;27;20264;-62
2023/12/12 09:53:16;;;;;;;26.03;18.43;;;6.40;99.90;;;;;;5124769;27;20570;-61
2023/12/12 09:55:46;;;;;;;27.03;20.50;;;6.50;99.90;;;;;;5112898;27;20233;-63
2023/12/12 09:58:15;;;;;;;31.10;22.07;;;6.50;99.90;;;;;;5115319;27;20690;-61
2023/12/12 10:00:43;;;;;;;31.67;22.53;;;6.50;99.90;;;;;;5122509;27;20223;-64
2023/12/12 10:03:15;;;;;;;28.97;22.30;;;6.40;99.90;;;;;;5125952;27;20194;-62
2023/12/12 10:05:52;;;;;;;31.27;21.83;;;6.40;99.90;;;;;;5124051;27;20298;-64
2023/12/12 10:08:21;;;;;;;33.23;24.10;;;6.40;99.90;;;;;;5120645;27;20212;-61
2023/12/12 10:10:53;;;;;;;37.63;23.00;;;6.40;99.90;;;;;;5110382;28;20189;-61
2023/12/12 10:13:22;;;;;;;30.83;19.47;;;6.50;99.90;;;;;;5110418;28;20291;-63
2023/12/12 10:15:51;;;;;;;28.23;17.87;;;6.60;99.90;;;;;;5109731;28;20220;-63
2023/12/12 10:18:22;;;;;;;24.93;17.53;;;6.80;99.90;;;;;;5124997;27;20203;-63
2023/12/12 10:20:51;;;;;;;24.00;15.87;;;6.80;99.90;;;;;;5129223;27;20206;-61
2023/12/12 10:23:19;;;;;;;23.73;16.00;;;6.70;99.90;;;;;;5128487;27;20274;-61
2023/12/12 10:25:49;;;;;;;25.13;17.83;;;6.70;99.90;;;;;;5127062;27;20196;-64
2023/12/12 10:28:19;;;;;;;26.50;17.97;;;6.60;99.90;;;;;;5130710;27;20219;-63
2023/12/12 10:30:53;;;;;;;34.10;21.60;;;6.50;99.90;;;;;;5130518;27;20281;-64
2023/12/12 10:33:23;;;;;;;31.10;20.83;;;6.50;99.90;;;;;;5130354;27;20192;-60
2023/12/12 10:35:51;;;;;;;31.83;22.87;;;6.50;99.90;;;;;;5111047;27;20196;-61
2023/12/12 10:38:25;;;;;;;36.13;22.27;;;6.60;99.90;;;;;;5129984;27;20179;-61
2023/12/12 10:40:53;;;;;;;28.07;20.53;;;6.60;99.90;;;;;;5129878;27;20252;-61
2023/12/12 10:43:23;;;;;;;26.87;20.17;;;6.70;99.90;;;;;;5130290;27;20209;-61
2023/12/12 10:45:53;;;;;;;35.73;24.23;;;6.60;99.90;;;;;;5130497;27;20196;-63
2023/12/12 10:48:24;;;;;;;35.53;25.73;;;6.80;99.90;;;;;;5125900;27;20228;-62
2023/12/12 10:50:58;;;;;;;36.40;24.43;;;7.00;99.90;;;;;;5121125;27;20204;-62
2023/12/12 10:53:27;;;;;;;31.27;23.17;;;7.00;99.90;;;;;;5130065;27;20591;-61
2023/12/12 10:55:56;;;;;;;34.13;23.07;;;7.00;99.90;;;;;;5130147;27;20194;-61
2023/12/12 10:58:25;;;;;;;31.23;22.53;;;7.10;99.90;;;;;;5129002;27;20200;-61
2023/12/12 11:00:54;;;;;;;29.20;23.10;;;7.00;99.90;;;;;;5128751;27;20235;-63
2023/12/12 11:03:24;;;;;;;34.17;25.50;;;7.00;99.90;;;;;;5129735;27;20208;-60
2023/12/12 11:05:55;;;;;;;29.37;22.33;;;7.00;99.90;;;;;;5130062;27;20265;-61
2023/12/12 11:08:25;;;;;;;41.20;27.17;;;6.90;99.90;;;;;;5130158;27;20205;-62
2023/12/12 11:10:54;;;;;;;34.40;24.07;;;6.80;99.90;;;;;;5129432;27;20609;-62
2023/12/12 11:13:25;;;;;;;30.73;21.97;;;6.90;99.90;;;;;;5129913;27;20199;-62
2023/12/12 11:15:57;;;;;;;31.73;21.87;;;6.80;99.90;;;;;;5129773;27;20191;-64
2023/12/12 11:18:27;;;;;;;31.73;22.57;;;6.90;99.90;;;;;;5129766;27;20191;-62
2023/12/12 11:20:55;;;;;;;40.83;27.20;;;7.00;99.90;;;;;;5129466;27;20280;-59
2023/12/12 11:23:54;;;;;;;37.53;28.60;;;7.00;99.90;;;;;;5129400;27;20199;-64
2023/12/12 11:26:26;;;;;;;36.97;27.07;;;7.00;99.90;;;;;;5129784;27;20300;-61
2023/12/12 11:28:55;;;;;;;35.27;22.67;;;6.90;99.90;;;;;;5129334;27;20199;-62
2023/12/12 11:31:28;;;;;;;30.97;22.70;;;6.90;99.90;;;;;;5129412;27;20191;-61
2023/12/12 11:34:10;;;;;;;34.43;22.07;;;7.00;99.90;;;;;;5110711;28;20200;-62
2023/12/12 11:36:51;;;;;;;32.47;20.70;;;7.00;99.90;;;;;;5129401;27;20314;-63
2023/12/12 11:39:30;;;;;;;32.80;21.53;;;7.10;99.90;;;;;;5129611;27;20237;-61
2023/12/12 11:41:59;;;;;;;35.53;23.30;;;7.10;99.90;;;;;;5117053;27;20283;-62
2023/12/12 11:44:41;;;;;;;35.87;22.80;;;7.10;99.90;;;;;;5118304;28;20187;-64
2023/12/12 11:47:14;;;;;;;33.13;21.87;;;7.10;99.90;;;;;;5122023;28;20196;-63
2023/12/12 11:49:44;;;;;;;39.50;26.47;;;7.10;99.90;;;;;;5113183;28;20243;-60
2023/12/12 11:52:48;;;;;;;37.57;25.90;;;7.00;99.90;;;;;;5118040;28;20203;-60
2023/12/12 11:55:20;;;;;;;35.80;24.03;;;7.00;99.90;;;;;;5128892;28;20206;-62
2023/12/12 11:57:50;;;;;;;43.27;28.60;;;7.00;99.90;;;;;;5129607;28;20254;-64
2023/12/12 12:00:20;;;;;;;46.50;31.17;;;7.10;99.90;;;;;;5129580;28;20192;-63
2023/12/12 12:02:49;;;;;;;49.80;35.13;;;7.00;99.90;;;;;;5129486;28;20199;-63
2023/12/12 12:05:18;;;;;;;57.70;31.60;;;6.90;99.90;;;;;;5129420;28;20200;-62
2023/12/12 12:07:47;;;;;;;42.93;27.50;;;6.80;99.90;;;;;;5129475;28;20252;-61
2023/12/12 12:10:16;;;;;;;34.90;22.37;;;6.70;99.90;;;;;;5129180;28;20208;-64
2023/12/12 12:12:54;;;;;;;20.83;12.87;;;6.60;99.90;;;;;;5129220;28;20248;-64
2023/12/12 12:15:23;;;;;;;17.47;12.00;;;6.60;99.90;;;;;;5129060;28;20199;-61
2023/12/12 12:17:51;;;;;;;14.03;10.50;;;6.50;99.90;;;;;;5129155;28;20204;-64
2023/12/12 12:20:21;;;;;;;16.43;11.43;;;6.50;99.90;;;;;;5129105;28;20560;-64
2023/12/12 12:22:50;;;;;;;17.00;11.23;;;6.50;99.90;;;;;;5128745;27;20666;-65
2023/12/12 12:25:26;;;;;;;15.07;10.60;;;6.40;99.90;;;;;;5125178;27;20250;-64
2023/12/12 12:27:56;;;;;;;16.53;12.53;;;6.40;99.90;;;;;;5119133;27;20196;-64
2023/12/12 12:30:25;;;;;;;18.67;14.43;;;6.40;99.90;;;;;;5112289;28;20324;-63
2023/12/12 12:33:02;;;;;;;26.77;16.20;;;6.40;99.90;;;;;;5093299;28;20633;-64
2023/12/12 12:35:32;;;;;;;24.13;16.87;;;6.40;99.90;;;;;;5112219;28;20310;-61
2023/12/12 12:38:01;;;;;;;26.90;16.13;;;6.40;99.90;;;;;;5112077;28;20199;-64
2023/12/12 12:40:34;;;;;;;22.63;16.23;;;6.40;99.90;;;;;;5111491;28;20601;-64
2023/12/12 12:43:04;;;;;;;24.87;17.87;;;6.50;99.90;;;;;;5112089;28;20195;-65
2023/12/12 12:45:34;;;;;;;31.20;19.37;;;6.50;99.90;;;;;;5111929;28;20601;-62
2023/12/12 12:48:05;;;;;;;25.13;16.50;;;6.50;99.90;;;;;;5111817;28;20285;-62
2023/12/12 12:50:35;;;;;;;24.07;17.13;;;6.40;99.90;;;;;;5111878;28;20231;-64